sensor_id;sensor_type;location;lat;lon;timestamp;temperature;humidity
78696;SHT31;68030;51.980;5.646;2023-10-19T00:00:14;12.9;78.9
78696;SHT31;68030;51.980;5.646;2023-10-19T00:02:50;12.9;78.9
78696;SHT31;68030;51.980;5.646;2023-10-19T00:05:22;12.9;78.9
78696;SHT31;68030;51.980;5.646;2023-10-19T00:07:52;13.0;79.0
78696;SHT31;68030;51.980;5.646;2023-10-19T00:10:24;13.0;79.0
78696;SHT31;68030;51.980;5.646;2023-10-19T00:12:56;13.0;78.9
78696;SHT31;68030;51.980;5.646;2023-10-19T00:15:26;13.1;78.7
78696;SHT31;68030;51.980;5.646;2023-10-19T00:17:57;13.1;78.8
78696;SHT31;68030;51.980;5.646;2023-10-19T00:20:31;13.1;78.7
78696;SHT31;68030;51.980;5.646;2023-10-19T00:23:24;13.2;78.7
78696;SHT31;68030;51.980;5.646;2023-10-19T00:25:55;13.2;78.7
78696;SHT31;68030;51.980;5.646;2023-10-19T00:28:25;13.3;78.7
78696;SHT31;68030;51.980;5.646;2023-10-19T00:30:54;13.3;78.7
78696;SHT31;68030;51.980;5.646;2023-10-19T00:33:29;13.3;78.8
78696;SHT31;68030;51.980;5.646;2023-10-19T00:35:59;13.4;78.8
78696;SHT31;68030;51.980;5.646;2023-10-19T00:38:33;13.4;78.8
78696;SHT31;68030;51.980;5.646;2023-10-19T00:41:12;13.4;78.6
78696;SHT31;68030;51.980;5.646;2023-10-19T00:43:46;13.5;78.5
78696;SHT31;68030;51.980;5.646;2023-10-19T00:46:18;13.5;78.6
78696;SHT31;68030;51.980;5.646;2023-10-19T00:48:55;13.6;78.6
78696;SHT31;68030;51.980;5.646;2023-10-19T00:51:27;13.6;78.4
78696;SHT31;68030;51.980;5.646;2023-10-19T00:54:11;13.6;78.4
78696;SHT31;68030;51.980;5.646;2023-10-19T00:56:45;13.7;78.4
78696;SHT31;68030;51.980;5.646;2023-10-19T00:59:18;13.7;78.4
78696;SHT31;68030;51.980;5.646;2023-10-19T01:01:51;13.7;78.4
78696;SHT31;68030;51.980;5.646;2023-10-19T01:04:21;13.7;78.5
78696;SHT31;68030;51.980;5.646;2023-10-19T01:06:56;13.8;78.5
78696;SHT31;68030;51.980;5.646;2023-10-19T01:09:32;13.8;78.6
78696;SHT31;68030;51.980;5.646;2023-10-19T01:12:07;13.8;78.7
78696;SHT31;68030;51.980;5.646;2023-10-19T01:14:42;13.9;78.7
78696;SHT31;68030;51.980;5.646;2023-10-19T01:17:10;13.9;78.7
78696;SHT31;68030;51.980;5.646;2023-10-19T01:19:39;13.9;78.6
78696;SHT31;68030;51.980;5.646;2023-10-19T01:22:11;14.0;78.6
78696;SHT31;68030;51.980;5.646;2023-10-19T01:24:43;14.0;78.7
78696;SHT31;68030;51.980;5.646;2023-10-19T01:27:12;14.0;78.8
78696;SHT31;68030;51.980;5.646;2023-10-19T01:29:41;14.1;78.7
78696;SHT31;68030;51.980;5.646;2023-10-19T01:32:11;14.1;78.7
78696;SHT31;68030;51.980;5.646;2023-10-19T01:34:41;14.1;78.7
78696;SHT31;68030;51.980;5.646;2023-10-19T01:37:10;14.2;78.7
78696;SHT31;68030;51.980;5.646;2023-10-19T01:39:41;14.2;78.8
78696;SHT31;68030;51.980;5.646;2023-10-19T01:42:12;14.2;78.8
78696;SHT31;68030;51.980;5.646;2023-10-19T01:44:40;14.3;79.0
78696;SHT31;68030;51.980;5.646;2023-10-19T01:47:09;14.3;79.1
78696;SHT31;68030;51.980;5.646;2023-10-19T01:49:37;14.4;79.2
78696;SHT31;68030;51.980;5.646;2023-10-19T01:52:06;14.4;79.2
78696;SHT31;68030;51.980;5.646;2023-10-19T01:54:36;14.4;79.2
78696;SHT31;68030;51.980;5.646;2023-10-19T01:57:07;14.5;79.3
78696;SHT31;68030;51.980;5.646;2023-10-19T01:59:36;14.6;79.1
78696;SHT31;68030;51.980;5.646;2023-10-19T02:02:04;14.6;79.1
78696;SHT31;68030;51.980;5.646;2023-10-19T02:04:36;14.7;79.0
78696;SHT31;68030;51.980;5.646;2023-10-19T02:07:07;14.7;79.0
78696;SHT31;68030;51.980;5.646;2023-10-19T02:09:41;14.8;78.8
78696;SHT31;68030;51.980;5.646;2023-10-19T02:12:12;14.8;78.6
78696;SHT31;68030;51.980;5.646;2023-10-19T02:14:45;14.9;78.4
78696;SHT31;68030;51.980;5.646;2023-10-19T02:17:14;14.9;78.5
78696;SHT31;68030;51.980;5.646;2023-10-19T02:19:43;15.0;78.2
78696;SHT31;68030;51.980;5.646;2023-10-19T02:22:14;15.0;78.0
78696;SHT31;68030;51.980;5.646;2023-10-19T02:24:43;15.1;78.1
78696;SHT31;68030;51.980;5.646;2023-10-19T02:27:12;15.1;78.0
78696;SHT31;68030;51.980;5.646;2023-10-19T02:29:41;15.1;78.0
78696;SHT31;68030;51.980;5.646;2023-10-19T02:32:10;15.2;78.3
78696;SHT31;68030;51.980;5.646;2023-10-19T02:34:40;15.2;78.5
78696;SHT31;68030;51.980;5.646;2023-10-19T02:37:10;15.2;78.6
78696;SHT31;68030;51.980;5.646;2023-10-19T02:39:40;15.3;78.6
78696;SHT31;68030;51.980;5.646;2023-10-19T02:42:10;15.3;78.6
78696;SHT31;68030;51.980;5.646;2023-10-19T02:44:38;15.4;78.6
78696;SHT31;68030;51.980;5.646;2023-10-19T02:47:08;15.4;78.6
78696;SHT31;68030;51.980;5.646;2023-10-19T02:49:37;15.5;78.7
78696;SHT31;68030;51.980;5.646;2023-10-19T02:52:11;15.5;78.7
78696;SHT31;68030;51.980;5.646;2023-10-19T02:54:42;15.6;78.7
78696;SHT31;68030;51.980;5.646;2023-10-19T02:57:13;15.6;78.6
78696;SHT31;68030;51.980;5.646;2023-10-19T02:59:41;15.7;78.6
78696;SHT31;68030;51.980;5.646;2023-10-19T03:02:13;15.7;78.5
78696;SHT31;68030;51.980;5.646;2023-10-19T03:04:44;15.8;78.2
78696;SHT31;68030;51.980;5.646;2023-10-19T03:07:13;15.8;78.1
78696;SHT31;68030;51.980;5.646;2023-10-19T03:09:42;15.9;78.0
78696;SHT31;68030;51.980;5.646;2023-10-19T03:12:15;15.9;77.8
78696;SHT31;68030;51.980;5.646;2023-10-19T03:14:44;15.9;77.7
78696;SHT31;68030;51.980;5.646;2023-10-19T03:17:14;16.0;77.6
78696;SHT31;68030;51.980;5.646;2023-10-19T03:19:43;16.0;77.6
78696;SHT31;68030;51.980;5.646;2023-10-19T03:22:12;16.0;77.4
78696;SHT31;68030;51.980;5.646;2023-10-19T03:24:41;16.1;77.4
78696;SHT31;68030;51.980;5.646;2023-10-19T03:27:12;16.1;77.3
78696;SHT31;68030;51.980;5.646;2023-10-19T03:29:42;16.1;77.3
78696;SHT31;68030;51.980;5.646;2023-10-19T03:32:15;16.2;77.5
78696;SHT31;68030;51.980;5.646;2023-10-19T03:34:48;16.2;77.5
78696;SHT31;68030;51.980;5.646;2023-10-19T03:37:22;16.3;77.4
78696;SHT31;68030;51.980;5.646;2023-10-19T03:39:52;16.3;77.4
78696;SHT31;68030;51.980;5.646;2023-10-19T03:42:24;16.3;77.4
78696;SHT31;68030;51.980;5.646;2023-10-19T03:45:00;16.4;77.2
78696;SHT31;68030;51.980;5.646;2023-10-19T03:47:34;16.4;77.1
78696;SHT31;68030;51.980;5.646;2023-10-19T03:50:03;16.5;77.1
78696;SHT31;68030;51.980;5.646;2023-10-19T03:52:35;16.5;77.0
78696;SHT31;68030;51.980;5.646;2023-10-19T03:55:07;16.5;76.8
78696;SHT31;68030;51.980;5.646;2023-10-19T03:57:42;16.6;76.7
78696;SHT31;68030;51.980;5.646;2023-10-19T04:00:17;16.6;76.4
78696;SHT31;68030;51.980;5.646;2023-10-19T04:02:53;16.7;76.5
78696;SHT31;68030;51.980;5.646;2023-10-19T04:05:22;16.7;76.4
78696;SHT31;68030;51.980;5.646;2023-10-19T04:07:52;16.8;76.3
78696;SHT31;68030;51.980;5.646;2023-10-19T04:10:23;16.8;76.1
78696;SHT31;68030;51.980;5.646;2023-10-19T04:13:07;16.8;75.9
78696;SHT31;68030;51.980;5.646;2023-10-19T04:15:37;16.9;75.7
78696;SHT31;68030;51.980;5.646;2023-10-19T04:18:08;16.9;75.8
78696;SHT31;68030;51.980;5.646;2023-10-19T04:20:38;16.9;75.7
78696;SHT31;68030;51.980;5.646;2023-10-19T04:23:17;16.9;75.6
78696;SHT31;68030;51.980;5.646;2023-10-19T04:25:47;17.0;75.6
78696;SHT31;68030;51.980;5.646;2023-10-19T04:28:16;17.0;75.5
78696;SHT31;68030;51.980;5.646;2023-10-19T04:30:49;17.0;75.4
78696;SHT31;68030;51.980;5.646;2023-10-19T04:33:18;17.1;75.3
78696;SHT31;68030;51.980;5.646;2023-10-19T04:35:49;17.1;75.2
78696;SHT31;68030;51.980;5.646;2023-10-19T04:38:23;17.1;75.2
78696;SHT31;68030;51.980;5.646;2023-10-19T04:40:51;17.1;74.9
78696;SHT31;68030;51.980;5.646;2023-10-19T04:43:20;17.2;74.5
78696;SHT31;68030;51.980;5.646;2023-10-19T04:45:49;17.2;74.3
78696;SHT31;68030;51.980;5.646;2023-10-19T04:48:18;17.2;74.0
78696;SHT31;68030;51.980;5.646;2023-10-19T04:50:47;17.2;73.9
78696;SHT31;68030;51.980;5.646;2023-10-19T04:53:16;17.2;73.8
78696;SHT31;68030;51.980;5.646;2023-10-19T04:55:45;17.2;73.7
78696;SHT31;68030;51.980;5.646;2023-10-19T04:58:14;17.2;73.6
78696;SHT31;68030;51.980;5.646;2023-10-19T05:00:43;17.2;73.6
78696;SHT31;68030;51.980;5.646;2023-10-19T05:03:13;17.2;73.5
78696;SHT31;68030;51.980;5.646;2023-10-19T05:05:45;17.2;73.5
78696;SHT31;68030;51.980;5.646;2023-10-19T05:08:13;17.2;73.4
78696;SHT31;68030;51.980;5.646;2023-10-19T05:10:42;17.2;73.6
78696;SHT31;68030;51.980;5.646;2023-10-19T05:13:10;17.1;73.6
78696;SHT31;68030;51.980;5.646;2023-10-19T05:15:39;17.1;73.6
78696;SHT31;68030;51.980;5.646;2023-10-19T05:18:09;17.1;73.7
78696;SHT31;68030;51.980;5.646;2023-10-19T05:20:38;17.1;73.9
78696;SHT31;68030;51.980;5.646;2023-10-19T05:23:08;17.1;74.0
78696;SHT31;68030;51.980;5.646;2023-10-19T05:25:37;17.1;73.9
78696;SHT31;68030;51.980;5.646;2023-10-19T05:28:06;17.1;74.0
78696;SHT31;68030;51.980;5.646;2023-10-19T05:30:36;17.1;74.1
78696;SHT31;68030;51.980;5.646;2023-10-19T05:33:05;17.1;74.1
78696;SHT31;68030;51.980;5.646;2023-10-19T05:35:34;17.1;74.2
78696;SHT31;68030;51.980;5.646;2023-10-19T05:38:08;17.1;74.2
78696;SHT31;68030;51.980;5.646;2023-10-19T05:40:37;17.1;74.1
78696;SHT31;68030;51.980;5.646;2023-10-19T05:43:09;17.1;74.0
78696;SHT31;68030;51.980;5.646;2023-10-19T05:45:38;17.1;73.9
78696;SHT31;68030;51.980;5.646;2023-10-19T05:48:08;17.2;73.8
78696;SHT31;68030;51.980;5.646;2023-10-19T05:50:38;17.2;73.9
78696;SHT31;68030;51.980;5.646;2023-10-19T05:53:10;17.2;73.8
78696;SHT31;68030;51.980;5.646;2023-10-19T05:55:40;17.2;73.8
78696;SHT31;68030;51.980;5.646;2023-10-19T05:58:08;17.2;73.9
78696;SHT31;68030;51.980;5.646;2023-10-19T06:00:39;17.2;73.8
78696;SHT31;68030;51.980;5.646;2023-10-19T06:03:08;17.2;73.7
78696;SHT31;68030;51.980;5.646;2023-10-19T06:05:39;17.2;73.8
78696;SHT31;68030;51.980;5.646;2023-10-19T06:08:09;17.2;73.7
78696;SHT31;68030;51.980;5.646;2023-10-19T06:10:40;17.3;73.6
78696;SHT31;68030;51.980;5.646;2023-10-19T06:13:09;17.3;73.7
78696;SHT31;68030;51.980;5.646;2023-10-19T06:15:38;17.3;73.6
78696;SHT31;68030;51.980;5.646;2023-10-19T06:18:06;17.3;73.6
78696;SHT31;68030;51.980;5.646;2023-10-19T06:20:36;17.3;73.7
78696;SHT31;68030;51.980;5.646;2023-10-19T06:23:05;17.3;73.5
78696;SHT31;68030;51.980;5.646;2023-10-19T06:25:34;17.3;73.4
78696;SHT31;68030;51.980;5.646;2023-10-19T06:28:03;17.3;73.6
78696;SHT31;68030;51.980;5.646;2023-10-19T06:30:33;17.4;73.5
78696;SHT31;68030;51.980;5.646;2023-10-19T06:33:02;17.4;73.4
78696;SHT31;68030;51.980;5.646;2023-10-19T06:35:33;17.4;73.4
78696;SHT31;68030;51.980;5.646;2023-10-19T06:38:04;17.4;73.2
78696;SHT31;68030;51.980;5.646;2023-10-19T06:40:36;17.4;73.3
78696;SHT31;68030;51.980;5.646;2023-10-19T06:43:05;17.4;73.4
78696;SHT31;68030;51.980;5.646;2023-10-19T06:45:34;17.4;73.3
78696;SHT31;68030;51.980;5.646;2023-10-19T06:48:02;17.4;73.3
78696;SHT31;68030;51.980;5.646;2023-10-19T06:50:33;17.5;73.5
78696;SHT31;68030;51.980;5.646;2023-10-19T06:53:02;17.5;73.4
78696;SHT31;68030;51.980;5.646;2023-10-19T06:55:32;17.5;73.4
78696;SHT31;68030;51.980;5.646;2023-10-19T06:58:01;17.5;73.2
78696;SHT31;68030;51.980;5.646;2023-10-19T07:00:31;17.5;73.2
78696;SHT31;68030;51.980;5.646;2023-10-19T07:03:00;17.5;73.0
78696;SHT31;68030;51.980;5.646;2023-10-19T07:05:31;17.5;72.9
78696;SHT31;68030;51.980;5.646;2023-10-19T07:08:01;17.5;72.9
78696;SHT31;68030;51.980;5.646;2023-10-19T07:10:33;17.5;72.9
78696;SHT31;68030;51.980;5.646;2023-10-19T07:13:03;17.6;72.8
78696;SHT31;68030;51.980;5.646;2023-10-19T07:15:32;17.6;73.0
78696;SHT31;68030;51.980;5.646;2023-10-19T07:18:00;17.6;72.8
78696;SHT31;68030;51.980;5.646;2023-10-19T07:20:29;17.6;72.8
78696;SHT31;68030;51.980;5.646;2023-10-19T07:23:01;17.6;72.9
78696;SHT31;68030;51.980;5.646;2023-10-19T07:25:37;17.6;72.5
78696;SHT31;68030;51.980;5.646;2023-10-19T07:28:09;17.7;72.6
78696;SHT31;68030;51.980;5.646;2023-10-19T07:30:39;17.7;72.4
78696;SHT31;68030;51.980;5.646;2023-10-19T07:33:08;17.7;72.5
78696;SHT31;68030;51.980;5.646;2023-10-19T07:35:38;17.7;72.6
78696;SHT31;68030;51.980;5.646;2023-10-19T07:38:10;17.7;72.7
78696;SHT31;68030;51.980;5.646;2023-10-19T07:40:40;17.8;72.6
78696;SHT31;68030;51.980;5.646;2023-10-19T07:43:08;17.8;72.5
78696;SHT31;68030;51.980;5.646;2023-10-19T07:45:38;17.8;72.7
78696;SHT31;68030;51.980;5.646;2023-10-19T07:48:09;17.8;72.4
78696;SHT31;68030;51.980;5.646;2023-10-19T07:50:39;17.8;72.4
78696;SHT31;68030;51.980;5.646;2023-10-19T07:53:09;17.9;72.3
78696;SHT31;68030;51.980;5.646;2023-10-19T07:55:37;17.9;72.2
78696;SHT31;68030;51.980;5.646;2023-10-19T07:58:07;17.9;72.4
78696;SHT31;68030;51.980;5.646;2023-10-19T08:00:38;17.9;72.4
78696;SHT31;68030;51.980;5.646;2023-10-19T08:03:10;18.0;72.2
78696;SHT31;68030;51.980;5.646;2023-10-19T08:05:44;18.0;72.3
78696;SHT31;68030;51.980;5.646;2023-10-19T08:08:12;18.0;72.1
78696;SHT31;68030;51.980;5.646;2023-10-19T08:10:42;18.0;71.9
78696;SHT31;68030;51.980;5.646;2023-10-19T08:13:13;18.0;72.0
78696;SHT31;68030;51.980;5.646;2023-10-19T08:15:42;18.1;72.1
78696;SHT31;68030;51.980;5.646;2023-10-19T08:18:11;18.1;71.8
78696;SHT31;68030;51.980;5.646;2023-10-19T08:20:41;18.1;71.5
78696;SHT31;68030;51.980;5.646;2023-10-19T08:23:12;18.1;71.6
78696;SHT31;68030;51.980;5.646;2023-10-19T08:25:43;18.1;71.7
78696;SHT31;68030;51.980;5.646;2023-10-19T08:28:12;18.2;71.7
78696;SHT31;68030;51.980;5.646;2023-10-19T08:30:41;18.2;71.9
78696;SHT31;68030;51.980;5.646;2023-10-19T08:33:11;18.2;71.8
78696;SHT31;68030;51.980;5.646;2023-10-19T08:35:41;18.2;71.6
78696;SHT31;68030;51.980;5.646;2023-10-19T08:38:11;18.3;71.7
78696;SHT31;68030;51.980;5.646;2023-10-19T08:40:41;18.3;71.7
78696;SHT31;68030;51.980;5.646;2023-10-19T08:43:10;18.3;71.5
78696;SHT31;68030;51.980;5.646;2023-10-19T08:45:42;18.4;71.8
78696;SHT31;68030;51.980;5.646;2023-10-19T08:48:11;18.4;71.6
78696;SHT31;68030;51.980;5.646;2023-10-19T08:50:41;18.4;71.4
78696;SHT31;68030;51.980;5.646;2023-10-19T08:53:10;18.5;71.1
78696;SHT31;68030;51.980;5.646;2023-10-19T08:55:40;18.5;71.3
78696;SHT31;68030;51.980;5.646;2023-10-19T08:58:10;18.6;71.0
78696;SHT31;68030;51.980;5.646;2023-10-19T09:00:46;18.6;71.1
78696;SHT31;68030;51.980;5.646;2023-10-19T09:03:20;18.6;71.2
78696;SHT31;68030;51.980;5.646;2023-10-19T09:05:49;18.7;71.5
78696;SHT31;68030;51.980;5.646;2023-10-19T09:08:18;18.7;71.5
78696;SHT31;68030;51.980;5.646;2023-10-19T09:10:50;18.8;71.4
78696;SHT31;68030;51.980;5.646;2023-10-19T09:13:20;18.8;71.2
78696;SHT31;68030;51.980;5.646;2023-10-19T09:15:50;18.9;70.7
78696;SHT31;68030;51.980;5.646;2023-10-19T09:18:23;18.9;70.8
78696;SHT31;68030;51.980;5.646;2023-10-19T09:20:54;19.0;70.4
78696;SHT31;68030;51.980;5.646;2023-10-19T09:23:28;19.0;70.5
78696;SHT31;68030;51.980;5.646;2023-10-19T09:25:59;19.1;70.2
78696;SHT31;68030;51.980;5.646;2023-10-19T09:28:30;19.1;70.0
78696;SHT31;68030;51.980;5.646;2023-10-19T09:31:00;19.1;69.9
78696;SHT31;68030;51.980;5.646;2023-10-19T09:33:31;19.2;70.2
78696;SHT31;68030;51.980;5.646;2023-10-19T09:36:01;19.2;70.4
78696;SHT31;68030;51.980;5.646;2023-10-19T09:38:33;19.3;70.6
78696;SHT31;68030;51.980;5.646;2023-10-19T09:41:03;19.3;70.3
78696;SHT31;68030;51.980;5.646;2023-10-19T09:43:39;19.4;70.5
78696;SHT31;68030;51.980;5.646;2023-10-19T09:46:11;19.5;70.1
78696;SHT31;68030;51.980;5.646;2023-10-19T09:48:42;19.6;70.1
78696;SHT31;68030;51.980;5.646;2023-10-19T09:51:15;19.7;69.6
78696;SHT31;68030;51.980;5.646;2023-10-19T09:53:53;19.8;69.1
78696;SHT31;68030;51.980;5.646;2023-10-19T09:56:27;19.9;68.5
78696;SHT31;68030;51.980;5.646;2023-10-19T09:59:05;20.0;68.3
78696;SHT31;68030;51.980;5.646;2023-10-19T10:02:05;20.1;68.5
78696;SHT31;68030;51.980;5.646;2023-10-19T10:04:35;20.2;67.6
78696;SHT31;68030;51.980;5.646;2023-10-19T10:07:05;20.3;67.3
78696;SHT31;68030;51.980;5.646;2023-10-19T10:09:38;20.3;66.9
78696;SHT31;68030;51.980;5.646;2023-10-19T10:12:23;20.4;67.2
78696;SHT31;68030;51.980;5.646;2023-10-19T10:15:01;20.4;67.8
78696;SHT31;68030;51.980;5.646;2023-10-19T10:17:35;20.5;67.6
78696;SHT31;68030;51.980;5.646;2023-10-19T10:20:33;20.6;66.2
78696;SHT31;68030;51.980;5.646;2023-10-19T10:23:17;20.6;66.0
78696;SHT31;68030;51.980;5.646;2023-10-19T10:25:51;20.7;66.2
78696;SHT31;68030;51.980;5.646;2023-10-19T10:28:20;20.7;65.6
78696;SHT31;68030;51.980;5.646;2023-10-19T10:31:09;20.7;65.9
78696;SHT31;68030;51.980;5.646;2023-10-19T10:33:41;20.8;65.2
78696;SHT31;68030;51.980;5.646;2023-10-19T10:36:12;20.8;65.1
78696;SHT31;68030;51.980;5.646;2023-10-19T10:38:41;20.8;65.4
78696;SHT31;68030;51.980;5.646;2023-10-19T10:41:10;20.9;65.3
78696;SHT31;68030;51.980;5.646;2023-10-19T10:43:56;20.9;65.7
78696;SHT31;68030;51.980;5.646;2023-10-19T10:46:26;20.9;65.9
78696;SHT31;68030;51.980;5.646;2023-10-19T10:48:55;21.0;65.3
78696;SHT31;68030;51.980;5.646;2023-10-19T10:51:26;21.0;65.6
78696;SHT31;68030;51.980;5.646;2023-10-19T10:53:57;21.0;65.5
78696;SHT31;68030;51.980;5.646;2023-10-19T10:56:26;21.0;65.7
78696;SHT31;68030;51.980;5.646;2023-10-19T10:58:55;21.0;65.3
78696;SHT31;68030;51.980;5.646;2023-10-19T11:01:31;21.0;64.9
78696;SHT31;68030;51.980;5.646;2023-10-19T11:04:08;21.0;65.3
78696;SHT31;68030;51.980;5.646;2023-10-19T11:07:00;21.0;65.3
78696;SHT31;68030;51.980;5.646;2023-10-19T11:09:28;21.1;65.5
78696;SHT31;68030;51.980;5.646;2023-10-19T11:11:58;21.1;65.5
78696;SHT31;68030;51.980;5.646;2023-10-19T11:14:27;21.1;66.3
78696;SHT31;68030;51.980;5.646;2023-10-19T11:17:13;21.2;66.4
78696;SHT31;68030;51.980;5.646;2023-10-19T11:19:44;21.3;66.4
78696;SHT31;68030;51.980;5.646;2023-10-19T11:22:12;21.4;65.2
78696;SHT31;68030;51.980;5.646;2023-10-19T11:24:40;21.5;63.7
78696;SHT31;68030;51.980;5.646;2023-10-19T11:27:09;21.5;63.4
78696;SHT31;68030;51.980;5.646;2023-10-19T11:29:38;21.6;64.0
78696;SHT31;68030;51.980;5.646;2023-10-19T11:32:07;21.6;64.1
78696;SHT31;68030;51.980;5.646;2023-10-19T11:34:36;21.6;64.4
78696;SHT31;68030;51.980;5.646;2023-10-19T11:37:05;21.7;64.4
78696;SHT31;68030;51.980;5.646;2023-10-19T11:39:37;21.8;64.1
78696;SHT31;68030;51.980;5.646;2023-10-19T11:42:06;21.8;62.5
78696;SHT31;68030;51.980;5.646;2023-10-19T11:44:36;21.9;62.3
78696;SHT31;68030;51.980;5.646;2023-10-19T11:47:05;21.9;61.5
78696;SHT31;68030;51.980;5.646;2023-10-19T11:49:34;22.0;61.5
78696;SHT31;68030;51.980;5.646;2023-10-19T11:52:04;22.0;60.9
78696;SHT31;68030;51.980;5.646;2023-10-19T11:54:34;22.0;60.8
78696;SHT31;68030;51.980;5.646;2023-10-19T11:57:02;22.0;60.8
78696;SHT31;68030;51.980;5.646;2023-10-19T11:59:31;22.0;60.4
78696;SHT31;68030;51.980;5.646;2023-10-19T12:01:59;22.0;60.5
78696;SHT31;68030;51.980;5.646;2023-10-19T12:04:30;22.0;60.6
78696;SHT31;68030;51.980;5.646;2023-10-19T12:07:02;22.0;60.7
78696;SHT31;68030;51.980;5.646;2023-10-19T12:09:32;22.0;60.5
78696;SHT31;68030;51.980;5.646;2023-10-19T12:12:02;22.0;60.1
78696;SHT31;68030;51.980;5.646;2023-10-19T12:14:32;21.9;60.7
78696;SHT31;68030;51.980;5.646;2023-10-19T12:17:02;21.9;60.7
78696;SHT31;68030;51.980;5.646;2023-10-19T12:19:34;21.9;60.9
78696;SHT31;68030;51.980;5.646;2023-10-19T12:22:04;21.9;60.5
78696;SHT31;68030;51.980;5.646;2023-10-19T12:24:35;21.9;60.5
78696;SHT31;68030;51.980;5.646;2023-10-19T12:27:03;21.9;61.0
78696;SHT31;68030;51.980;5.646;2023-10-19T12:29:35;21.9;61.5
78696;SHT31;68030;51.980;5.646;2023-10-19T12:32:05;21.9;60.9
78696;SHT31;68030;51.980;5.646;2023-10-19T12:34:35;21.9;61.4
78696;SHT31;68030;51.980;5.646;2023-10-19T12:37:06;21.9;61.1
78696;SHT31;68030;51.980;5.646;2023-10-19T12:39:36;21.9;61.3
78696;SHT31;68030;51.980;5.646;2023-10-19T12:42:09;21.9;61.0
78696;SHT31;68030;51.980;5.646;2023-10-19T12:44:38;21.9;61.2
78696;SHT31;68030;51.980;5.646;2023-10-19T12:47:08;21.9;61.0
78696;SHT31;68030;51.980;5.646;2023-10-19T12:49:40;21.9;60.8
78696;SHT31;68030;51.980;5.646;2023-10-19T12:52:08;21.9;60.8
78696;SHT31;68030;51.980;5.646;2023-10-19T12:54:38;21.9;61.3
78696;SHT31;68030;51.980;5.646;2023-10-19T12:57:10;21.8;61.3
78696;SHT31;68030;51.980;5.646;2023-10-19T12:59:39;21.8;61.2
78696;SHT31;68030;51.980;5.646;2023-10-19T13:02:10;21.8;61.6
78696;SHT31;68030;51.980;5.646;2023-10-19T13:04:41;21.8;61.5
78696;SHT31;68030;51.980;5.646;2023-10-19T13:07:13;21.7;61.8
78696;SHT31;68030;51.980;5.646;2023-10-19T13:09:41;21.7;61.5
78696;SHT31;68030;51.980;5.646;2023-10-19T13:12:10;21.7;62.1
78696;SHT31;68030;51.980;5.646;2023-10-19T13:14:39;21.6;62.3
78696;SHT31;68030;51.980;5.646;2023-10-19T13:17:10;21.6;63.0
78696;SHT31;68030;51.980;5.646;2023-10-19T13:19:38;21.5;63.3
78696;SHT31;68030;51.980;5.646;2023-10-19T13:22:07;21.5;63.7
78696;SHT31;68030;51.980;5.646;2023-10-19T13:24:35;21.4;64.1
78696;SHT31;68030;51.980;5.646;2023-10-19T13:27:07;21.4;64.3
78696;SHT31;68030;51.980;5.646;2023-10-19T13:29:36;21.3;64.9
78696;SHT31;68030;51.980;5.646;2023-10-19T13:32:08;21.2;65.0
78696;SHT31;68030;51.980;5.646;2023-10-19T13:34:36;21.2;65.6
78696;SHT31;68030;51.980;5.646;2023-10-19T13:37:06;21.1;65.8
78696;SHT31;68030;51.980;5.646;2023-10-19T13:39:35;21.1;65.9
78696;SHT31;68030;51.980;5.646;2023-10-19T13:42:06;21.1;66.4
78696;SHT31;68030;51.980;5.646;2023-10-19T13:44:35;21.0;65.9
78696;SHT31;68030;51.980;5.646;2023-10-19T13:47:05;21.0;66.2
78696;SHT31;68030;51.980;5.646;2023-10-19T13:49:35;21.0;66.2
78696;SHT31;68030;51.980;5.646;2023-10-19T13:52:04;21.0;66.6
78696;SHT31;68030;51.980;5.646;2023-10-19T13:54:35;21.0;66.7
78696;SHT31;68030;51.980;5.646;2023-10-19T13:57:04;21.0;66.5
78696;SHT31;68030;51.980;5.646;2023-10-19T13:59:32;20.9;66.4
78696;SHT31;68030;51.980;5.646;2023-10-19T14:02:01;20.9;66.7
78696;SHT31;68030;51.980;5.646;2023-10-19T14:04:30;20.9;66.6
78696;SHT31;68030;51.980;5.646;2023-10-19T14:06:58;20.9;67.0
78696;SHT31;68030;51.980;5.646;2023-10-19T14:09:27;20.9;66.8
78696;SHT31;68030;51.980;5.646;2023-10-19T14:11:58;20.8;66.8
78696;SHT31;68030;51.980;5.646;2023-10-19T14:14:28;20.8;66.8
78696;SHT31;68030;51.980;5.646;2023-10-19T14:16:57;20.7;67.4
78696;SHT31;68030;51.980;5.646;2023-10-19T14:19:25;20.7;67.6
78696;SHT31;68030;51.980;5.646;2023-10-19T14:21:55;20.7;67.8
78696;SHT31;68030;51.980;5.646;2023-10-19T14:24:23;20.6;68.1
78696;SHT31;68030;51.980;5.646;2023-10-19T14:26:51;20.6;68.1
78696;SHT31;68030;51.980;5.646;2023-10-19T14:29:20;20.5;68.4
78696;SHT31;68030;51.980;5.646;2023-10-19T14:31:49;20.5;68.7
78696;SHT31;68030;51.980;5.646;2023-10-19T14:34:17;20.5;68.9
78696;SHT31;68030;51.980;5.646;2023-10-19T14:36:46;20.4;69.2
78696;SHT31;68030;51.980;5.646;2023-10-19T14:39:14;20.4;69.2
78696;SHT31;68030;51.980;5.646;2023-10-19T14:41:46;20.4;69.3
78696;SHT31;68030;51.980;5.646;2023-10-19T14:44:15;20.4;68.9
78696;SHT31;68030;51.980;5.646;2023-10-19T14:46:43;20.3;69.3
78696;SHT31;68030;51.980;5.646;2023-10-19T14:49:13;20.3;69.3
78696;SHT31;68030;51.980;5.646;2023-10-19T14:51:41;20.3;69.5
78696;SHT31;68030;51.980;5.646;2023-10-19T14:54:10;20.3;69.5
78696;SHT31;68030;51.980;5.646;2023-10-19T14:56:40;20.3;69.6
78696;SHT31;68030;51.980;5.646;2023-10-19T14:59:10;20.2;69.6
78696;SHT31;68030;51.980;5.646;2023-10-19T15:01:40;20.2;69.9
78696;SHT31;68030;51.980;5.646;2023-10-19T15:04:08;20.2;69.9
78696;SHT31;68030;51.980;5.646;2023-10-19T15:06:37;20.1;70.0
78696;SHT31;68030;51.980;5.646;2023-10-19T15:09:06;20.1;69.9
78696;SHT31;68030;51.980;5.646;2023-10-19T15:11:40;20.0;70.1
78696;SHT31;68030;51.980;5.646;2023-10-19T15:14:10;20.0;70.2
78696;SHT31;68030;51.980;5.646;2023-10-19T15:16:39;20.0;70.1
78696;SHT31;68030;51.980;5.646;2023-10-19T15:19:08;19.9;70.2
78696;SHT31;68030;51.980;5.646;2023-10-19T15:21:38;19.9;70.3
78696;SHT31;68030;51.980;5.646;2023-10-19T15:24:08;19.8;70.5
78696;SHT31;68030;51.980;5.646;2023-10-19T15:26:39;19.8;70.8
78696;SHT31;68030;51.980;5.646;2023-10-19T15:29:09;19.8;70.6
78696;SHT31;68030;51.980;5.646;2023-10-19T15:31:37;19.7;70.6
78696;SHT31;68030;51.980;5.646;2023-10-19T15:34:06;19.7;70.8
78696;SHT31;68030;51.980;5.646;2023-10-19T15:36:35;19.7;71.0
78696;SHT31;68030;51.980;5.646;2023-10-19T15:39:04;19.6;70.7
78696;SHT31;68030;51.980;5.646;2023-10-19T15:41:34;19.6;70.8
78696;SHT31;68030;51.980;5.646;2023-10-19T15:44:03;19.6;71.2
78696;SHT31;68030;51.980;5.646;2023-10-19T15:46:32;19.5;71.5
78696;SHT31;68030;51.980;5.646;2023-10-19T15:49:05;19.5;72.1
78696;SHT31;68030;51.980;5.646;2023-10-19T15:51:36;19.5;72.0
78696;SHT31;68030;51.980;5.646;2023-10-19T15:54:06;19.5;71.7
78696;SHT31;68030;51.980;5.646;2023-10-19T15:56:37;19.5;71.8
78696;SHT31;68030;51.980;5.646;2023-10-19T15:59:07;19.5;71.7
78696;SHT31;68030;51.980;5.646;2023-10-19T16:01:36;19.6;71.6
78696;SHT31;68030;51.980;5.646;2023-10-19T16:04:05;19.6;71.5
78696;SHT31;68030;51.980;5.646;2023-10-19T16:06:34;19.6;71.3
78696;SHT31;68030;51.980;5.646;2023-10-19T16:09:02;19.6;71.2
78696;SHT31;68030;51.980;5.646;2023-10-19T16:11:32;19.5;71.2
78696;SHT31;68030;51.980;5.646;2023-10-19T16:14:00;19.5;71.1
78696;SHT31;68030;51.980;5.646;2023-10-19T16:16:29;19.5;70.9
78696;SHT31;68030;51.980;5.646;2023-10-19T16:18:57;19.5;70.9
78696;SHT31;68030;51.980;5.646;2023-10-19T16:21:26;19.4;71.1
78696;SHT31;68030;51.980;5.646;2023-10-19T16:23:54;19.4;71.1